Terminal Aerodrome Forecast
Issued by NWS

Home | Current Version | Previous Version | Text Only | Print | Product List | Glossary On
Versions: 1 2 3 4 5 6 7 8 9 10 11 12 13 14 15
000
FTUS45 KRIW 250540 CCA
TAFBPI
TAF COR
KBPI 250540Z 2506/2606 VRB04KT P6SM VCSH BKN025 BKN070
     FM251300 VRB07KT 6SM -SHRA SCT005 BKN025 BKN040
     FM251900 28011G20KT 6SM -SHRA VCTS SCT050CB BKN080
     FM260200 30008KT P6SM VCSH SCT050 BKN070=

USA.gov is the U.S. government's official web portal to all federal, state and local government web resources and services.